Array
(
    [0] => p
    [1] => METAR
)
- বাংলা English

** MARITIME PORTS OF CHATTOGRAM, COX'S BAZAR, MONGLA AND PAYRA HAVE BEEN ADVISED TO KEEP HOISTED LOCAL CAUTIONARY SIGNAL NO. THREE. MONSOON IS STRONG OVER NORTH BAY **

METAR

VGHS 171700Z 14009KT 4000 HZ FEW015 SCT100 29/25 Q1001 NOSIG=